createdAt,value
2022-08-02T00:01:23.098Z,154617.97
2022-08-02T00:03:50.543Z,154664.69
2022-08-02T00:06:18.287Z,154649.13
2022-08-02T00:08:45.675Z,154669.84
2022-08-02T00:11:13.178Z,154702.25
2022-08-02T00:13:40.682Z,154649.13
2022-08-02T00:16:08.596Z,154642.63
2022-08-02T00:18:37.475Z,154646.53
2022-08-02T00:21:05.084Z,154646.53
2022-08-02T00:23:32.881Z,154566.19
2022-08-02T00:26:20.385Z,154605.03
2022-08-02T00:28:48.124Z,154559.72
2022-08-02T00:31:15.552Z,154586.94
2022-08-02T00:34:26.389Z,154536.38
2022-08-02T00:36:31.800Z,154527.34
2022-08-02T00:38:59.253Z,154444.44
2022-08-02T00:41:26.812Z,154422.47
2022-08-02T00:43:54.229Z,152225.34
2022-08-02T00:46:21.968Z,153953.78
2022-08-02T00:48:50.832Z,154483.28
2022-08-02T00:51:18.938Z,154510.47
2022-08-02T00:53:46.350Z,154488.50
2022-08-02T00:56:13.863Z,154516.97
2022-08-02T00:58:41.273Z,154472.94
2022-08-02T01:01:08.805Z,154458.69
2022-08-02T01:03:36.244Z,150625.25
2022-08-02T01:06:13.098Z,146372.97
2022-08-02T01:08:40.801Z,146338.59
2022-08-02T01:11:08.768Z,139669.16
2022-08-02T01:13:36.296Z,139670.34
2022-08-02T01:16:12.064Z,146007.97
2022-08-02T01:18:45.205Z,152749.53
2022-08-02T01:21:32.681Z,146697.50
2022-08-02T01:24:17.736Z,139953.00
2022-08-02T01:26:51.968Z,124921.69
2022-08-02T01:29:23.485Z,124633.41
2022-08-02T01:31:54.974Z,128133.97
2022-08-02T01:34:29.908Z,129860.88
2022-08-02T01:37:01.674Z,131944.63
2022-08-02T01:39:35.046Z,128767.03
2022-08-02T01:42:04.694Z,122143.31
2022-08-02T01:44:37.009Z,117990.94
2022-08-02T01:47:08.552Z,120737.19
2022-08-02T01:49:38.505Z,112366.88
2022-08-02T01:52:23.487Z,105795.59
2022-08-02T01:54:53.452Z,104055.78
2022-08-02T01:57:23.984Z,104080.25
2022-08-02T01:59:57.904Z,114155.78
2022-08-02T02:02:30.053Z,113461.38
2022-08-02T02:05:00.631Z,115900.66
2022-08-02T02:07:29.790Z,123912.66
2022-08-02T02:09:59.410Z,129475.53
2022-08-02T02:12:28.398Z,126658.03
2022-08-02T02:14:58.998Z,120712.91
2022-08-02T02:18:11.686Z,112345.19
2022-08-02T02:20:19.143Z,101254.97
2022-08-02T02:22:49.778Z,100600.97
2022-08-02T02:25:20.083Z,106181.44
2022-08-02T02:27:58.970Z,110666.72
2022-08-02T02:30:29.862Z,113080.63
2022-08-02T02:33:00.738Z,105753.91
2022-08-02T02:35:30.651Z,96413.00
2022-08-02T02:38:01.781Z,93677.41
2022-08-02T02:40:30.261Z,94364.78
2022-08-02T02:43:00.889Z,94401.22
2022-08-02T02:45:32.769Z,100957.22
2022-08-02T02:48:03.071Z,101994.97
2022-08-02T02:50:31.520Z,104792.66
2022-08-02T02:53:00.017Z,113488.00
2022-08-02T02:55:29.345Z,114445.00
2022-08-02T02:57:58.707Z,104369.84
2022-08-02T03:00:40.870Z,98872.81
2022-08-02T03:03:10.912Z,105815.13
2022-08-02T03:05:38.408Z,106449.69
2022-08-02T03:08:06.338Z,97443.84
2022-08-02T03:10:34.518Z,94726.00
2022-08-02T03:13:02.422Z,95762.41
2022-08-02T03:15:31.069Z,104778.63
2022-08-02T03:17:58.758Z,112395.13
2022-08-02T03:20:27.508Z,113397.66
2022-08-02T03:22:54.996Z,110257.53
2022-08-02T03:25:22.416Z,104364.59
2022-08-02T03:27:49.812Z,99877.06
2022-08-02T03:30:17.493Z,103008.91
2022-08-02T03:32:47.568Z,109256.00
2022-08-02T03:35:22.943Z,112371.56
2022-08-02T03:37:54.914Z,116890.75
2022-08-02T03:40:23.111Z,119299.97
2022-08-02T03:42:51.253Z,113722.28
2022-08-02T03:45:19.462Z,108542.91
2022-08-02T03:47:47.499Z,105096.19
2022-08-02T03:50:15.498Z,101627.44
2022-08-02T03:52:44.799Z,96464.00
2022-08-02T03:55:14.197Z,94409.13
2022-08-02T03:57:42.811Z,97537.91
2022-08-02T04:00:12.943Z,101331.41
2022-08-02T04:02:40.668Z,104119.47
2022-08-02T04:05:09.194Z,107596.16
2022-08-02T04:08:33.587Z,112784.13
2022-08-02T04:10:25.467Z,119056.63
2022-08-02T04:12:52.288Z,124975.09
2022-08-02T04:15:19.843Z,126407.44
2022-08-02T04:17:51.882Z,126033.94
2022-08-02T04:20:22.694Z,122562.75
2022-08-02T04:22:57.921Z,127099.72
2022-08-02T04:25:38.193Z,125702.66
2022-08-02T04:28:16.527Z,127462.97
2022-08-02T04:30:46.303Z,132732.09
2022-08-02T04:33:14.402Z,141454.03
2022-08-02T04:35:41.970Z,140424.78
2022-08-02T04:38:10.673Z,138688.16
2022-08-02T04:40:39.642Z,138002.88
2022-08-02T04:43:07.203Z,150923.28
2022-08-02T04:45:35.188Z,154520.84
2022-08-02T04:48:04.977Z,154520.84
2022-08-02T04:50:33.187Z,154571.38
2022-08-02T04:53:00.642Z,154605.03
2022-08-02T04:55:29.854Z,154628.38
2022-08-02T04:57:59.248Z,154603.72
2022-08-02T05:00:28.172Z,154571.38
2022-08-02T05:02:56.614Z,154651.75
2022-08-02T05:05:24.471Z,154745.03
2022-08-02T05:07:52.041Z,154834.41
2022-08-02T05:10:19.591Z,154826.66
2022-08-02T05:12:47.132Z,154940.78
2022-08-02T05:15:18.491Z,155044.53
2022-08-02T05:17:48.214Z,155197.66
2022-08-02T05:20:16.966Z,155227.47
2022-08-02T05:22:44.841Z,155318.38
2022-08-02T05:25:12.890Z,155393.66
2022-08-02T05:27:40.821Z,155389.75
2022-08-02T05:30:09.392Z,155396.25
2022-08-02T05:32:44.443Z,155511.81
2022-08-02T05:35:12.051Z,155552.09
2022-08-02T05:37:39.528Z,155440.41
2022-08-02T05:40:13.128Z,155418.31
2022-08-02T05:42:40.995Z,155380.66
2022-08-02T05:45:09.197Z,155283.28
2022-08-02T05:47:38.861Z,155240.44
2022-08-02T05:50:07.904Z,155214.50
2022-08-02T05:52:45.379Z,155258.63
2022-08-02T05:55:18.230Z,155263.81
2022-08-02T05:57:54.392Z,155305.41
2022-08-02T06:00:22.815Z,155254.72
2022-08-02T06:03:16.513Z,155284.56
2022-08-02T06:05:51.776Z,155272.91
2022-08-02T06:08:21.887Z,155261.22
2022-08-02T06:10:50.441Z,155266.38
2022-08-02T06:13:18.128Z,155307.97
2022-08-02T06:15:53.206Z,155328.75
2022-08-02T06:18:28.471Z,155267.69
2022-08-02T06:20:58.688Z,155075.63
2022-08-02T06:23:58.620Z,155227.47
2022-08-02T06:26:28.827Z,155250.84
2022-08-02T06:28:57.848Z,155337.81
2022-08-02T06:31:25.501Z,155435.19
2022-08-02T06:33:54.409Z,155432.59
2022-08-02T06:36:31.951Z,155440.41
2022-08-02T06:39:05.550Z,155526.09
2022-08-02T06:41:42.209Z,155518.34
2022-08-02T06:44:43.033Z,155502.69
2022-08-02T06:47:11.256Z,155557.28
2022-08-02T06:49:52.382Z,155653.41
2022-08-02T06:52:27.835Z,155593.66
2022-08-02T06:54:57.464Z,155614.44
2022-08-02T06:57:25.289Z,155713.25
2022-08-02T06:59:53.376Z,155732.69
2022-08-02T07:02:20.996Z,155762.59
2022-08-02T07:04:49.902Z,155832.78
2022-08-02T07:07:17.566Z,155889.91
2022-08-02T07:09:57.040Z,155925.09
2022-08-02T07:12:30.039Z,156030.38
2022-08-02T07:14:58.206Z,156113.66
2022-08-02T07:17:25.821Z,156428.56
2022-08-02T07:19:54.595Z,156362.19
2022-08-02T07:22:23.616Z,156340.03
2022-08-02T07:24:51.263Z,156364.81
2022-08-02T07:27:19.363Z,156312.72
2022-08-02T07:29:47.587Z,156332.25
2022-08-02T07:32:15.997Z,156340.03
2022-08-02T07:34:51.319Z,156222.91
2022-08-02T07:37:35.511Z,156176.06
2022-08-02T07:40:13.961Z,156137.06
2022-08-02T07:42:42.810Z,156238.53
2022-08-02T07:45:11.281Z,156176.06
2022-08-02T07:47:39.003Z,156189.06
2022-08-02T07:50:08.015Z,156034.28
2022-08-02T07:52:36.864Z,156043.38
2022-08-02T07:55:05.419Z,156113.66
2022-08-02T07:57:33.197Z,156155.28
2022-08-02T08:00:01.173Z,156108.44
2022-08-02T08:02:28.635Z,156261.94
2022-08-02T08:04:56.080Z,156317.94
2022-08-02T08:07:24.459Z,156388.22
2022-08-02T08:09:56.646Z,156222.91
2022-08-02T08:12:24.414Z,156328.34
2022-08-02T08:14:51.931Z,156356.97
2022-08-02T08:17:19.416Z,156407.72
2022-08-02T08:19:50.958Z,156475.44
2022-08-02T08:22:19.943Z,156557.47
2022-08-02T08:24:48.612Z,156433.75
2022-08-02T08:27:18.012Z,156501.53
2022-08-02T08:29:46.249Z,156493.69
2022-08-02T08:32:17.553Z,156471.56
2022-08-02T08:34:46.242Z,156462.44
2022-08-02T08:37:16.813Z,156511.94
2022-08-02T08:39:56.343Z,156579.63
2022-08-02T08:42:27.958Z,156593.94
2022-08-02T08:44:56.004Z,156656.47
2022-08-02T08:47:25.182Z,156754.16
2022-08-02T08:49:55.800Z,156683.81
2022-08-02T08:52:26.579Z,156703.38
2022-08-02T08:54:54.952Z,156712.47
2022-08-02T08:57:22.448Z,156872.75
2022-08-02T08:59:51.599Z,156790.69
2022-08-02T09:02:20.597Z,156898.81
2022-08-02T09:04:54.925Z,156689.06
2022-08-02T09:07:22.833Z,156702.06
2022-08-02T09:09:50.359Z,156793.28
2022-08-02T09:12:19.582Z,156828.44
2022-08-02T09:14:50.061Z,156644.75
2022-08-02T09:17:21.995Z,156668.19
2022-08-02T09:20:07.284Z,156704.69
2022-08-02T09:22:34.720Z,156630.44
2022-08-02T09:25:02.268Z,156681.22
2022-08-02T09:27:37.220Z,156687.75
2022-08-02T09:30:13.264Z,156725.50
2022-08-02T09:32:49.890Z,156805.00
2022-08-02T09:36:07.389Z,156864.97
2022-08-02T09:38:20.307Z,156884.47
2022-08-02T09:40:47.760Z,157025.28
2022-08-02T09:43:16.365Z,157137.44
2022-08-02T09:45:43.878Z,157110.06
2022-08-02T09:48:13.351Z,157017.47
2022-08-02T09:50:42.299Z,156921.00
2022-08-02T09:53:13.791Z,156910.53
2022-08-02T09:55:41.547Z,156991.41
2022-08-02T09:58:19.296Z,156983.56
2022-08-02T10:00:55.894Z,156975.78
2022-08-02T10:03:31.950Z,156850.63
2022-08-02T10:06:05.780Z,156805.00
2022-08-02T10:08:34.095Z,156926.16
2022-08-02T10:11:03.561Z,156949.72
2022-08-02T10:13:32.833Z,156894.94
2022-08-02T10:16:00.444Z,157001.84
2022-08-02T10:18:38.617Z,156986.19
2022-08-02T10:21:11.083Z,157186.97
2022-08-02T10:23:40.694Z,157201.31
2022-08-02T10:26:08.768Z,157286.16
2022-08-02T10:28:37.450Z,157312.22
2022-08-02T10:31:07.232Z,157342.22
2022-08-02T10:33:38.460Z,157380.03
2022-08-02T10:36:08.473Z,157445.31
2022-08-02T10:38:36.994Z,157423.16
2022-08-02T10:41:05.019Z,157372.25
2022-08-02T10:43:48.895Z,157280.91
2022-08-02T10:46:32.254Z,157252.16
2022-08-02T10:49:36.646Z,157218.28
2022-08-02T10:52:09.907Z,157189.59
2022-08-02T10:54:39.980Z,157270.47
2022-08-02T10:57:19.450Z,157254.84
2022-08-02T10:59:47.249Z,157250.84
2022-08-02T11:02:33.405Z,157260.06
2022-08-02T11:05:11.460Z,157352.66
2022-08-02T11:07:41.318Z,157321.34
2022-08-02T11:10:32.799Z,157282.22
2022-08-02T11:13:02.521Z,157369.63
2022-08-02T11:15:33.216Z,157369.63
2022-08-02T11:18:00.614Z,157361.78
2022-08-02T11:20:29.598Z,157411.44
2022-08-02T11:23:45.029Z,157460.97
2022-08-02T11:26:47.208Z,157459.66
2022-08-02T11:29:16.006Z,157397.03
2022-08-02T11:31:45.681Z,157453.16
2022-08-02T11:34:37.020Z,157543.19
2022-08-02T11:37:02.304Z,157633.25
2022-08-02T11:39:29.774Z,157581.06
2022-08-02T11:41:58.761Z,157528.81
2022-08-02T11:44:27.508Z,157455.75
2022-08-02T11:46:56.757Z,157507.97
2022-08-02T11:49:25.269Z,157424.47
2022-08-02T11:51:54.586Z,157359.19
2022-08-02T11:54:26.291Z,157492.31
2022-08-02T11:56:54.049Z,157459.66
2022-08-02T11:59:21.926Z,157402.22
2022-08-02T12:01:49.739Z,157445.31
2022-08-02T12:04:22.747Z,157440.13
2022-08-02T12:06:58.191Z,157483.16
2022-08-02T12:09:28.838Z,157526.22
2022-08-02T12:11:57.496Z,157484.44
2022-08-02T12:14:26.417Z,157393.09
2022-08-02T12:17:11.767Z,157450.56
2022-08-02T12:19:42.131Z,157507.97
2022-08-02T12:22:16.667Z,157586.31
2022-08-02T12:24:48.484Z,157585.00
2022-08-02T12:27:37.424Z,157510.53
2022-08-02T12:30:08.489Z,157496.19
2022-08-02T12:32:37.255Z,157479.25
2022-08-02T12:35:08.210Z,157510.53
2022-08-02T12:37:36.994Z,157581.06
2022-08-02T12:40:26.106Z,157601.97
2022-08-02T12:42:56.544Z,157574.56
2022-08-02T12:45:24.387Z,157646.31
2022-08-02T12:47:53.971Z,157642.44
2022-08-02T12:50:23.068Z,157675.03
2022-08-02T12:52:51.735Z,157672.47
2022-08-02T12:55:24.246Z,157724.72
2022-08-02T12:57:55.161Z,157742.97
2022-08-02T13:00:30.718Z,157620.22
2022-08-02T13:02:59.369Z,157568.03
2022-08-02T13:05:28.998Z,157468.78
2022-08-02T13:08:17.091Z,157374.81
2022-08-02T13:10:44.940Z,157502.75
2022-08-02T13:13:13.695Z,157635.88
2022-08-02T13:15:49.772Z,157701.16
2022-08-02T13:18:18.646Z,157766.50
2022-08-02T13:20:46.320Z,157735.16
2022-08-02T13:23:21.119Z,157766.50
2022-08-02T13:25:52.870Z,157664.59
2022-08-02T13:28:22.615Z,157535.38
2022-08-02T13:30:50.768Z,157562.84
2022-08-02T13:33:19.246Z,157521.03
2022-08-02T13:35:48.035Z,157578.44
2022-08-02T13:38:15.664Z,157672.47
2022-08-02T13:41:04.427Z,157714.28
2022-08-02T13:43:53.343Z,157732.53
2022-08-02T13:46:28.759Z,157800.44
2022-08-02T13:48:57.183Z,157844.84
2022-08-02T13:51:24.776Z,157745.59
2022-08-02T13:53:53.569Z,157698.56
2022-08-02T13:56:21.028Z,157654.19
2022-08-02T13:59:54.166Z,157690.72
2022-08-02T14:01:52.959Z,157601.97
2022-08-02T14:04:20.442Z,157701.16
2022-08-02T14:06:47.892Z,157750.84
2022-08-02T14:09:17.087Z,157669.84
2022-08-02T14:11:45.162Z,157607.16
2022-08-02T14:14:16.569Z,157625.47
2022-08-02T14:16:45.075Z,157552.31
2022-08-02T14:19:16.437Z,157502.75
2022-08-02T14:21:46.493Z,157519.72
2022-08-02T14:24:15.192Z,157513.16
2022-08-02T14:26:42.977Z,157436.19
2022-08-02T14:29:10.792Z,157411.44
2022-08-02T14:31:43.985Z,157429.66
2022-08-02T14:34:12.571Z,157455.75
2022-08-02T14:36:40.053Z,157472.72
2022-08-02T14:39:07.646Z,157414.03
2022-08-02T14:42:00.179Z,157374.81
2022-08-02T14:44:24.823Z,157416.59
2022-08-02T14:46:53.717Z,157450.56
2022-08-02T14:49:26.800Z,157477.94
2022-08-02T14:51:54.715Z,157441.44
2022-08-02T14:54:27.804Z,157502.75
2022-08-02T14:56:58.118Z,157547.13
2022-08-02T14:59:25.548Z,157566.72
2022-08-02T15:01:54.467Z,157496.19
2022-08-02T15:04:22.060Z,157459.66
2022-08-02T15:06:49.532Z,157427.09
2022-08-02T15:09:17.003Z,157408.81
2022-08-02T15:11:47.347Z,157363.09
2022-08-02T15:14:18.469Z,157340.91
2022-08-02T15:16:58.413Z,157330.50
2022-08-02T15:19:29.482Z,157322.66
2022-08-02T15:22:16.600Z,157346.13
2022-08-02T15:24:46.594Z,157427.09
2022-08-02T15:27:14.707Z,157424.47
2022-08-02T15:29:43.177Z,157417.91
2022-08-02T15:32:12.619Z,157393.09
2022-08-02T15:34:40.412Z,157414.03
2022-08-02T15:37:07.972Z,157446.63
2022-08-02T15:39:35.513Z,157429.66
2022-08-02T15:42:03.375Z,157437.50
2022-08-02T15:44:30.880Z,157449.25
2022-08-02T15:46:58.319Z,157460.97
2022-08-02T15:49:27.174Z,157450.56
2022-08-02T15:51:55.580Z,157455.75
2022-08-02T15:54:23.068Z,157457.06
2022-08-02T15:56:50.904Z,157434.88
2022-08-02T15:59:18.576Z,157417.91
2022-08-02T16:01:47.973Z,157454.47
2022-08-02T16:04:16.744Z,157501.44
2022-08-02T16:06:45.908Z,157506.66
2022-08-02T16:09:13.549Z,157505.34
2022-08-02T16:11:41.021Z,157511.84
2022-08-02T16:14:09.517Z,157481.88
2022-08-02T16:16:40.163Z,157494.94
2022-08-02T16:19:47.810Z,157494.94
2022-08-02T16:21:56.906Z,157625.47
2022-08-02T16:24:24.574Z,157635.88
2022-08-02T16:26:51.999Z,157703.81
2022-08-02T16:29:19.766Z,157681.59
2022-08-02T16:31:47.499Z,157803.06
2022-08-02T16:34:15.222Z,157949.34
2022-08-02T16:36:42.661Z,158040.88
2022-08-02T16:39:11.538Z,158061.75
2022-08-02T16:41:51.125Z,158001.63
2022-08-02T16:44:29.195Z,157839.59
2022-08-02T16:47:01.318Z,157863.19
2022-08-02T16:50:06.944Z,157884.06
2022-08-02T16:52:18.996Z,157837.03
2022-08-02T16:54:49.571Z,157761.25
2022-08-02T16:57:19.760Z,157753.44
2022-08-02T16:59:57.758Z,157873.63
2022-08-02T17:02:26.039Z,157850.13
2022-08-02T17:04:53.466Z,157910.19
2022-08-02T17:08:07.384Z,157878.81
2022-08-02T17:10:10.456Z,157856.63
2022-08-02T17:12:38.594Z,157758.66
2022-08-02T17:16:00.872Z,157652.88
2022-08-02T17:17:55.111Z,157740.41
2022-08-02T17:20:24.509Z,157739.09
2022-08-02T17:22:52.112Z,157643.75
2022-08-02T17:25:21.079Z,157562.84
2022-08-02T17:27:55.500Z,157479.25
2022-08-02T17:30:26.450Z,157639.81
2022-08-02T17:32:57.668Z,157571.94
2022-08-02T17:35:26.928Z,157594.13
2022-08-02T17:38:11.096Z,157515.78
2022-08-02T17:40:46.481Z,157476.66
2022-08-02T17:43:14.602Z,157337.00
2022-08-02T17:48:55.088Z,157395.72
2022-08-02T17:52:15.487Z,157464.91
2022-08-02T17:54:11.140Z,157398.31
2022-08-02T17:56:42.603Z,157414.03
2022-08-02T17:59:12.708Z,157414.03
2022-08-02T18:01:53.151Z,157367.00
2022-08-02T18:04:27.372Z,157367.00
2022-08-02T18:06:57.053Z,157374.81
2022-08-02T18:09:25.005Z,157321.34
2022-08-02T18:11:56.188Z,157257.44
2022-08-02T18:14:24.419Z,157235.25
2022-08-02T18:16:53.919Z,157237.81
2022-08-02T18:19:21.372Z,157205.25
2022-08-02T18:21:48.961Z,157192.22
2022-08-02T18:24:16.483Z,157106.16
2022-08-02T18:26:44.029Z,157072.22
2022-08-02T18:29:12.745Z,157033.06
2022-08-02T18:31:50.854Z,157030.50
2022-08-02T18:34:19.335Z,156949.72
2022-08-02T18:36:51.787Z,156956.19
2022-08-02T18:39:19.254Z,156944.47
2022-08-02T18:41:47.752Z,156935.31
2022-08-02T18:44:16.954Z,156896.25
2022-08-02T18:46:46.386Z,156845.38
2022-08-02T18:49:16.946Z,156833.66
2022-08-02T18:51:44.797Z,156802.38
2022-08-02T18:54:12.304Z,156803.69
2022-08-02T18:56:40.064Z,156771.13
2022-08-02T18:59:07.803Z,156689.06
2022-08-02T19:01:48.677Z,156696.84
2022-08-02T19:04:26.873Z,156696.84
2022-08-02T19:06:55.389Z,156709.88
2022-08-02T19:09:22.818Z,156719.03
2022-08-02T19:11:50.523Z,156616.13
2022-08-02T19:14:19.028Z,156550.97
2022-08-02T19:16:57.358Z,156621.34
2022-08-02T19:19:28.906Z,156610.88
2022-08-02T19:22:17.740Z,156580.94
2022-08-02T19:24:45.924Z,156561.38
2022-08-02T19:27:14.751Z,156590.03
2022-08-02T19:29:48.777Z,156506.69
2022-08-02T19:32:42.620Z,156471.56
2022-08-02T19:35:19.644Z,156457.25
2022-08-02T19:37:59.122Z,156388.22
2022-08-02T19:40:28.887Z,156411.63
2022-08-02T19:44:26.241Z,156295.84
2022-08-02T19:45:51.097Z,156099.34
2022-08-02T19:48:24.413Z,156004.38
2022-08-02T19:50:59.289Z,156147.50
2022-08-02T19:53:46.880Z,156057.69
2022-08-02T19:56:20.932Z,156121.44
2022-08-02T19:58:49.051Z,156129.28
2022-08-02T20:01:17.839Z,156152.66
2022-08-02T20:03:51.989Z,156131.88
2022-08-02T20:06:29.389Z,156003.06
2022-08-02T20:08:58.855Z,156073.31
2022-08-02T20:11:26.915Z,156062.91
2022-08-02T20:13:54.377Z,155994.00
2022-08-02T20:16:28.198Z,155908.19
2022-08-02T20:18:57.504Z,155921.19
2022-08-02T20:21:36.577Z,155856.16
2022-08-02T20:24:05.656Z,155880.84
2022-08-02T20:26:33.347Z,156018.69
2022-08-02T20:29:03.194Z,156007.00
2022-08-02T20:31:30.901Z,156012.16
2022-08-02T20:33:59.821Z,156030.38
2022-08-02T20:36:28.128Z,156046.00
2022-08-02T20:38:56.064Z,155978.38
2022-08-02T20:41:23.556Z,155878.22
2022-08-02T20:44:04.981Z,155923.78
2022-08-02T20:46:43.174Z,155856.16
2022-08-02T20:49:21.579Z,155728.78
2022-08-02T20:51:52.578Z,155819.78
2022-08-02T20:54:21.566Z,155830.16
2022-08-02T20:56:50.473Z,155866.53
2022-08-02T20:59:21.048Z,155871.75
2022-08-02T21:01:57.196Z,155831.47
2022-08-02T21:04:27.129Z,155806.78
2022-08-02T21:06:59.026Z,155819.78
2022-08-02T21:09:52.651Z,155836.63
2022-08-02T21:12:14.424Z,155837.94
2022-08-02T21:14:41.865Z,155848.38
2022-08-02T21:17:11.194Z,155806.78
2022-08-02T21:19:44.331Z,155661.19
2022-08-02T21:22:11.906Z,155593.66
2022-08-02T21:24:41.184Z,155643.03
2022-08-02T21:27:52.041Z,155694.97
2022-08-02T21:29:56.433Z,155765.19
2022-08-02T21:32:23.853Z,155783.34
2022-08-02T21:34:53.876Z,155843.16
2022-08-02T21:37:21.336Z,155837.94
2022-08-02T21:40:00.793Z,155826.25
2022-08-02T21:42:28.490Z,155759.97
2022-08-02T21:44:57.340Z,155702.75
2022-08-02T21:47:26.262Z,155750.91
2022-08-02T21:50:13.703Z,155750.91
2022-08-02T21:52:52.032Z,155739.22
2022-08-02T21:55:24.066Z,155710.63
2022-08-02T21:58:07.475Z,155622.22
2022-08-02T22:00:34.898Z,155597.56
2022-08-02T22:05:51.023Z,155545.63
2022-08-02T22:08:18.437Z,155606.63
2022-08-02T22:11:04.252Z,155637.81
2022-08-02T22:13:47.247Z,155594.94
2022-08-02T22:16:15.494Z,155576.78
2022-08-02T22:18:51.265Z,155532.63
2022-08-02T22:21:20.795Z,155571.59
2022-08-02T22:23:51.674Z,155576.78
2022-08-02T22:26:19.769Z,155541.69
2022-08-02T22:28:51.122Z,155566.38
2022-08-02T22:34:11.554Z,155429.97
2022-08-02T22:36:56.170Z,155449.47
2022-08-02T22:39:23.614Z,155422.22
2022-08-02T22:42:05.118Z,155422.22
2022-08-02T22:44:34.861Z,155406.63
2022-08-02T22:47:07.070Z,155417.00
2022-08-02T22:49:43.869Z,155388.44
2022-08-02T22:52:21.935Z,155401.41
2022-08-02T22:54:50.824Z,155367.69
2022-08-02T22:57:29.940Z,155384.56
2022-08-02T22:58:51.465Z,157417.91
2022-08-02T22:59:05.141Z,155520.94
2022-08-02T22:59:11.917Z,155554.69
2022-08-02T22:59:58.801Z,155398.84
2022-08-02T23:02:26.658Z,155346.91
2022-08-02T23:04:54.137Z,155289.78
2022-08-02T23:07:22.853Z,155178.19
2022-08-02T23:09:50.262Z,155292.38
2022-08-02T23:12:19.683Z,155205.44
2022-08-02T23:14:47.436Z,155265.13
2022-08-02T23:17:32.270Z,155283.28
2022-08-02T23:19:59.731Z,155257.31
2022-08-02T23:22:32.385Z,155256.00
2022-08-02T23:25:01.213Z,155076.94
2022-08-02T23:27:29.317Z,155108.13
2022-08-02T23:29:56.915Z,155121.09
2022-08-02T23:32:25.453Z,155218.41
2022-08-02T23:34:53.689Z,155209.34
2022-08-02T23:37:22.497Z,155171.66
2022-08-02T23:39:51.579Z,155185.94
2022-08-02T23:42:19.401Z,155179.47
2022-08-02T23:44:47.007Z,155166.50
2022-08-02T23:47:14.446Z,155152.25
2022-08-02T23:49:41.899Z,155128.91
2022-08-02T23:52:09.595Z,155150.94
2022-08-02T23:54:37.118Z,155105.50
2022-08-02T23:57:20.579Z,155127.59
2022-08-02T23:59:49.095Z,155067.88
